Time;durP1;ratioP1;P1;durP2;ratioP2;P2;SDS_P1;SDS_P2;PMS_P1;PMS_P2;Temp;Humidity;BMP_temperature;BMP_pressure;BME280_temperature;BME280_humidity;BME280_pressure;Samples;Min_cycle;Max_cycle;Signal;HPM_P1;HPM_P2
2021/10/20 00:01:44;;;;;;;167.77;66.53;;;15.20;99.90;;;;;;5033079;28;20021;-71
2021/10/20 00:04:09;;;;;;;159.52;67.10;;;15.20;99.90;;;;;;5032995;28;20108;-70
2021/10/20 00:06:35;;;;;;;148.85;60.97;;;15.20;99.90;;;;;;5033359;28;20052;-71
2021/10/20 00:09:02;;;;;;;149.93;63.78;;;15.30;99.90;;;;;;5032452;28;20065;-71
2021/10/20 00:11:27;;;;;;;137.70;59.72;;;15.30;99.90;;;;;;5033537;28;20056;-70
2021/10/20 00:13:53;;;;;;;142.65;63.30;;;15.30;99.90;;;;;;5033040;28;20512;-71
2021/10/20 00:16:19;;;;;;;121.85;57.10;;;15.30;99.90;;;;;;5023713;28;20073;-71
2021/10/20 00:18:48;;;;;;;140.57;58.85;;;15.30;99.90;;;;;;5017566;28;20033;-70
2021/10/20 00:21:16;;;;;;;125.90;57.00;;;15.40;99.90;;;;;;5031906;28;20485;-71
2021/10/20 00:23:41;;;;;;;137.15;59.15;;;15.40;99.90;;;;;;5032511;28;20033;-71
2021/10/20 00:26:07;;;;;;;125.20;56.90;;;15.40;99.90;;;;;;5032260;28;20467;-71
2021/10/20 00:28:32;;;;;;;114.45;54.22;;;15.40;99.90;;;;;;5032152;28;20024;-71
2021/10/20 00:30:58;;;;;;;111.07;53.25;;;15.40;99.90;;;;;;5032657;28;20013;-71
2021/10/20 00:33:23;;;;;;;128.60;55.45;;;15.40;99.90;;;;;;5032738;28;20068;-71
2021/10/20 00:35:49;;;;;;;110.40;51.53;;;15.40;99.90;;;;;;5032653;28;20420;-71
2021/10/20 00:38:15;;;;;;;114.57;52.72;;;15.40;99.90;;;;;;5031716;28;20080;-71
2021/10/20 00:40:40;;;;;;;120.05;51.75;;;15.40;99.90;;;;;;5032773;28;20021;-70
2021/10/20 00:43:06;;;;;;;123.47;53.10;;;15.40;99.90;;;;;;5032129;28;20048;-70
2021/10/20 00:45:31;;;;;;;104.38;51.78;;;15.40;99.90;;;;;;5032506;28;20090;-70
2021/10/20 00:47:57;;;;;;;117.97;54.05;;;15.40;99.90;;;;;;5032240;28;20033;-70
2021/10/20 00:50:22;;;;;;;114.30;53.42;;;15.40;99.90;;;;;;5035481;28;20021;-70
2021/10/20 00:52:48;;;;;;;114.05;50.60;;;15.40;99.90;;;;;;5036392;28;20175;-70
2021/10/20 00:55:14;;;;;;;113.85;51.25;;;15.40;99.90;;;;;;5036184;28;20033;-70
2021/10/20 00:57:41;;;;;;;113.40;50.83;;;15.30;99.90;;;;;;5036252;28;20052;-70
2021/10/20 01:00:10;;;;;;;114.18;50.65;;;15.30;99.90;;;;;;5034580;28;20112;-70
2021/10/20 01:02:37;;;;;;;111.10;47.70;;;15.30;99.90;;;;;;5035323;28;20025;-71
2021/10/20 01:05:08;;;;;;;117.45;49.20;;;15.30;99.90;;;;;;5035722;28;20025;-71
2021/10/20 01:07:34;;;;;;;113.32;49.75;;;15.30;99.90;;;;;;5035479;28;20116;-70
2021/10/20 01:09:59;;;;;;;116.18;47.78;;;15.30;99.90;;;;;;5036150;28;20033;-70
2021/10/20 01:12:25;;;;;;;122.57;49.72;;;15.30;99.90;;;;;;5035964;28;20025;-70
2021/10/20 01:14:51;;;;;;;118.30;53.22;;;15.30;99.90;;;;;;5035988;28;20029;-70
2021/10/20 01:17:17;;;;;;;124.47;50.28;;;15.30;99.90;;;;;;5035283;28;20060;-70
2021/10/20 01:19:44;;;;;;;126.00;48.22;;;15.30;99.90;;;;;;5035948;28;20033;-70
2021/10/20 01:22:10;;;;;;;128.75;49.78;;;15.20;99.90;;;;;;5035827;28;20033;-70
2021/10/20 01:24:36;;;;;;;108.50;47.97;;;15.20;99.90;;;;;;5035706;28;20025;-70
2021/10/20 01:27:01;;;;;;;123.78;49.95;;;15.20;99.90;;;;;;5035740;28;20032;-70
2021/10/20 01:29:27;;;;;;;133.85;50.97;;;15.10;99.90;;;;;;5034927;28;20532;-70
2021/10/20 01:31:56;;;;;;;129.90;49.30;;;15.10;99.90;;;;;;5034385;28;20078;-70
2021/10/20 01:34:22;;;;;;;124.82;50.25;;;15.10;99.90;;;;;;5035245;28;20484;-70
2021/10/20 01:36:51;;;;;;;154.00;51.78;;;15.00;99.90;;;;;;5035817;28;20030;-70
2021/10/20 01:39:18;;;;;;;126.97;49.85;;;15.00;99.90;;;;;;5035568;28;20104;-70
2021/10/20 01:41:44;;;;;;;142.90;51.13;;;14.90;99.90;;;;;;5035199;28;20033;-70
2021/10/20 01:44:10;;;;;;;141.38;50.70;;;14.90;99.90;;;;;;5035327;28;20030;-70
2021/10/20 01:46:36;;;;;;;132.25;51.00;;;14.90;99.90;;;;;;5035413;28;20044;-70
2021/10/20 01:49:01;;;;;;;126.13;46.88;;;14.90;99.90;;;;;;5035525;28;20021;-71
2021/10/20 01:51:28;;;;;;;120.35;45.90;;;14.90;99.90;;;;;;5035425;28;20100;-71
2021/10/20 01:53:54;;;;;;;114.05;47.38;;;14.90;99.90;;;;;;5035030;28;20021;-71
2021/10/20 01:56:20;;;;;;;108.68;45.75;;;14.90;99.90;;;;;;5035194;28;20392;-70
2021/10/20 01:58:46;;;;;;;113.22;46.10;;;14.90;99.90;;;;;;5035081;28;20025;-70
2021/10/20 02:01:12;;;;;;;124.72;48.22;;;14.80;99.90;;;;;;5029236;28;20033;-70
2021/10/20 02:03:39;;;;;;;126.78;45.55;;;14.90;99.90;;;;;;5033796;28;20041;-70
2021/10/20 02:06:14;;;;;;;120.88;46.35;;;14.90;99.90;;;;;;5033696;28;20033;-69
2021/10/20 02:08:41;;;;;;;118.22;45.47;;;14.80;99.90;;;;;;5031456;28;20053;-71
2021/10/20 02:11:07;;;;;;;119.47;45.08;;;14.90;99.90;;;;;;5033788;28;20020;-73
2021/10/20 02:13:33;;;;;;;112.68;44.65;;;14.90;99.90;;;;;;5033028;28;20018;-72
2021/10/20 02:15:59;;;;;;;110.85;45.45;;;14.90;99.90;;;;;;5033392;28;20048;-71
2021/10/20 02:18:25;;;;;;;109.53;43.75;;;14.90;99.90;;;;;;5032737;28;20017;-72
2021/10/20 02:20:51;;;;;;;109.70;44.30;;;14.90;99.90;;;;;;5033113;28;20041;-72
2021/10/20 02:23:18;;;;;;;114.00;44.22;;;14.90;99.90;;;;;;5030059;28;20022;-72
2021/10/20 02:25:44;;;;;;;110.63;42.55;;;14.90;99.90;;;;;;5030196;28;20024;-72
2021/10/20 02:28:10;;;;;;;92.75;41.10;;;14.90;99.90;;;;;;5033329;28;20033;-72
2021/10/20 02:30:36;;;;;;;102.70;40.38;;;15.00;99.90;;;;;;5031846;28;20022;-72
2021/10/20 02:33:02;;;;;;;98.32;40.60;;;14.90;99.90;;;;;;5033353;28;20083;-72
2021/10/20 02:35:28;;;;;;;93.88;41.88;;;15.00;99.90;;;;;;5033145;28;20095;-73
2021/10/20 02:37:54;;;;;;;108.20;42.25;;;14.90;99.90;;;;;;5032952;28;20436;-73
2021/10/20 02:40:19;;;;;;;98.95;42.25;;;15.00;99.90;;;;;;5033086;28;20493;-73
2021/10/20 02:42:45;;;;;;;87.60;40.00;;;15.00;99.90;;;;;;5033184;28;20029;-73
2021/10/20 02:45:13;;;;;;;109.88;40.33;;;14.90;99.90;;;;;;5027071;28;20030;-74
2021/10/20 02:47:40;;;;;;;96.75;39.42;;;15.00;99.90;;;;;;5031849;28;20075;-70
2021/10/20 02:50:06;;;;;;;106.35;38.88;;;15.00;99.90;;;;;;5033473;28;20021;-70
2021/10/20 02:52:32;;;;;;;99.93;40.28;;;15.00;99.90;;;;;;5033663;28;20017;-70
2021/10/20 02:54:58;;;;;;;94.13;37.63;;;15.00;99.90;;;;;;5033464;28;20029;-70
2021/10/20 02:57:23;;;;;;;91.30;39.28;;;15.00;99.90;;;;;;5032966;28;20037;-70
2021/10/20 02:59:51;;;;;;;95.50;40.28;;;15.00;99.90;;;;;;5033546;28;20433;-70
2021/10/20 03:02:17;;;;;;;110.35;40.40;;;15.00;99.90;;;;;;5033244;28;20026;-70
2021/10/20 03:04:43;;;;;;;82.20;39.90;;;15.00;99.90;;;;;;5033416;28;20040;-70
2021/10/20 03:07:09;;;;;;;86.85;40.20;;;15.00;99.90;;;;;;5032538;28;20017;-70
2021/10/20 03:09:34;;;;;;;88.47;38.10;;;15.00;99.90;;;;;;5033308;28;20397;-70
2021/10/20 03:12:00;;;;;;;86.20;39.50;;;15.10;99.90;;;;;;5033187;28;20033;-70
2021/10/20 03:14:26;;;;;;;84.70;37.10;;;15.00;99.90;;;;;;5033105;28;20028;-70
2021/10/20 03:16:52;;;;;;;84.75;38.53;;;15.10;99.90;;;;;;5033174;28;20060;-70
2021/10/20 03:19:17;;;;;;;86.53;39.20;;;15.10;99.90;;;;;;5032675;28;20057;-70
2021/10/20 03:21:43;;;;;;;92.03;37.97;;;15.10;99.90;;;;;;5033358;28;20044;-70
2021/10/20 03:24:08;;;;;;;80.88;39.00;;;15.10;99.90;;;;;;5032265;28;20449;-70
2021/10/20 03:26:34;;;;;;;96.53;36.75;;;15.00;99.90;;;;;;5033325;28;20017;-70
2021/10/20 03:28:59;;;;;;;90.82;39.10;;;15.00;99.90;;;;;;5033452;28;20477;-70
2021/10/20 03:31:26;;;;;;;95.80;39.35;;;15.10;99.90;;;;;;5032194;28;20428;-70
2021/10/20 03:33:51;;;;;;;99.38;39.83;;;15.00;99.90;;;;;;5032902;28;20021;-70
2021/10/20 03:36:17;;;;;;;90.22;40.28;;;15.00;99.90;;;;;;5033466;28;20021;-70
2021/10/20 03:38:43;;;;;;;92.45;39.42;;;15.00;99.90;;;;;;5033327;28;20033;-70
2021/10/20 03:41:09;;;;;;;83.10;38.05;;;15.00;99.90;;;;;;5033359;28;20393;-70
2021/10/20 03:43:34;;;;;;;83.65;38.35;;;15.00;99.90;;;;;;5033535;28;20362;-71
2021/10/20 03:46:00;;;;;;;76.47;38.20;;;15.00;99.90;;;;;;5033330;28;20370;-71
2021/10/20 03:48:25;;;;;;;80.10;36.25;;;15.00;99.90;;;;;;5032741;28;20108;-70
2021/10/20 03:50:51;;;;;;;78.15;36.28;;;15.00;99.90;;;;;;5032467;28;20061;-70
2021/10/20 03:53:17;;;;;;;71.70;34.10;;;15.00;99.90;;;;;;5033506;28;20029;-70
2021/10/20 03:55:42;;;;;;;72.20;35.08;;;15.00;99.90;;;;;;5033143;28;20037;-70
2021/10/20 03:58:08;;;;;;;81.53;37.10;;;15.10;99.90;;;;;;5032825;28;20033;-71
2021/10/20 04:00:34;;;;;;;76.07;35.63;;;15.00;99.90;;;;;;5033106;28;20036;-70
2021/10/20 04:02:59;;;;;;;77.55;36.85;;;15.00;99.90;;;;;;5032833;28;20026;-70
2021/10/20 04:05:25;;;;;;;79.70;37.58;;;15.00;99.90;;;;;;5033060;28;20091;-70
2021/10/20 04:07:51;;;;;;;75.53;36.47;;;15.00;99.90;;;;;;5032273;28;20026;-70
2021/10/20 04:10:26;;;;;;;81.32;37.47;;;14.90;99.90;;;;;;5032573;28;20036;-70
2021/10/20 04:12:52;;;;;;;75.68;38.90;;;14.90;99.90;;;;;;5032920;28;20477;-70
2021/10/20 04:15:20;;;;;;;76.22;35.08;;;14.90;99.90;;;;;;5032883;28;20447;-70
2021/10/20 04:17:46;;;;;;;63.60;33.08;;;15.00;99.90;;;;;;5031838;28;20412;-70
2021/10/20 04:20:14;;;;;;;67.75;33.67;;;14.90;99.90;;;;;;5033259;28;20108;-70
2021/10/20 04:22:41;;;;;;;66.60;34.85;;;15.00;99.90;;;;;;5032189;28;20029;-70
2021/10/20 04:25:08;;;;;;;64.85;33.92;;;15.00;99.90;;;;;;5034859;28;20087;-70
2021/10/20 04:27:34;;;;;;;70.90;33.22;;;14.90;99.90;;;;;;5036822;28;20108;-70
2021/10/20 04:30:00;;;;;;;74.25;30.73;;;15.00;99.90;;;;;;5036686;28;20113;-70
2021/10/20 04:32:27;;;;;;;59.53;30.05;;;15.00;99.90;;;;;;5036548;28;20026;-70
2021/10/20 04:34:52;;;;;;;62.17;30.05;;;15.10;99.90;;;;;;5036618;28;20481;-70
2021/10/20 04:37:24;;;;;;;56.80;30.67;;;15.00;99.90;;;;;;5035846;28;20032;-70
2021/10/20 04:39:52;;;;;;;62.22;32.83;;;15.00;99.90;;;;;;5037248;28;20111;-70
2021/10/20 04:42:18;;;;;;;70.15;31.10;;;15.00;99.90;;;;;;5036546;28;20036;-70
2021/10/20 04:44:43;;;;;;;66.05;32.28;;;14.90;99.90;;;;;;5036514;28;20017;-71
2021/10/20 04:47:09;;;;;;;62.53;32.20;;;14.90;99.90;;;;;;5036353;28;20025;-70
2021/10/20 04:49:34;;;;;;;63.28;33.67;;;14.80;99.90;;;;;;5035709;28;20076;-70
2021/10/20 04:52:00;;;;;;;59.58;32.08;;;14.80;99.90;;;;;;5036358;28;20021;-70
2021/10/20 04:54:25;;;;;;;69.10;32.38;;;14.80;99.90;;;;;;5036376;28;20083;-69
2021/10/20 04:56:51;;;;;;;73.80;33.17;;;14.80;99.90;;;;;;5036171;28;20030;-70
2021/10/20 04:59:16;;;;;;;66.03;30.77;;;14.80;99.90;;;;;;5036290;28;20117;-70
2021/10/20 05:01:42;;;;;;;55.80;30.35;;;14.80;99.90;;;;;;5035601;28;20035;-70
2021/10/20 05:04:07;;;;;;;60.38;33.88;;;14.80;99.90;;;;;;5036095;28;20053;-70
2021/10/20 05:06:33;;;;;;;73.55;34.10;;;14.80;99.90;;;;;;5036459;28;20540;-70
2021/10/20 05:08:58;;;;;;;66.07;31.88;;;14.80;99.90;;;;;;5035740;28;20124;-70
2021/10/20 05:11:24;;;;;;;68.45;32.75;;;14.80;99.90;;;;;;5036599;28;20100;-70
2021/10/20 05:13:50;;;;;;;60.70;30.52;;;14.80;99.90;;;;;;5035918;28;20040;-70
2021/10/20 05:16:15;;;;;;;70.47;31.88;;;14.80;99.90;;;;;;5035204;28;20044;-70
2021/10/20 05:18:41;;;;;;;54.53;29.60;;;14.80;99.90;;;;;;5035063;28;20083;-70
2021/10/20 05:21:06;;;;;;;59.10;29.05;;;14.80;99.90;;;;;;5034128;28;20025;-70
2021/10/20 05:23:32;;;;;;;50.95;28.77;;;14.80;99.90;;;;;;5034925;28;20440;-70
2021/10/20 05:25:57;;;;;;;56.33;28.42;;;14.80;99.90;;;;;;5036096;28;20036;-70
2021/10/20 05:28:23;;;;;;;52.83;29.25;;;14.80;99.90;;;;;;5035686;28;20025;-71
2021/10/20 05:30:48;;;;;;;49.55;26.23;;;14.90;99.90;;;;;;5035258;28;20034;-70
2021/10/20 05:33:14;;;;;;;55.97;27.27;;;14.80;99.90;;;;;;5035712;28;20479;-70
2021/10/20 05:35:40;;;;;;;50.67;25.90;;;14.90;99.90;;;;;;5034064;28;20092;-70
2021/10/20 05:38:06;;;;;;;50.50;25.15;;;14.80;99.90;;;;;;5035513;28;20017;-71
2021/10/20 05:40:34;;;;;;;44.33;24.85;;;14.80;99.90;;;;;;5034972;28;20440;-71
2021/10/20 05:42:59;;;;;;;51.95;24.58;;;14.80;99.90;;;;;;5051081;28;20406;-71
2021/10/20 05:45:25;;;;;;;42.60;24.10;;;14.80;99.90;;;;;;5035635;28;20033;-71
2021/10/20 05:47:50;;;;;;;48.45;24.63;;;14.80;99.90;;;;;;5034228;28;20104;-70
2021/10/20 05:50:16;;;;;;;45.35;24.10;;;14.80;99.90;;;;;;5015543;28;20037;-70
2021/10/20 05:52:43;;;;;;;40.63;22.00;;;14.70;99.90;;;;;;5015015;28;20022;-70
2021/10/20 05:55:08;;;;;;;41.70;22.02;;;14.70;99.90;;;;;;5034731;28;20171;-70
2021/10/20 05:57:38;;;;;;;42.33;22.88;;;14.70;99.90;;;;;;5035747;28;20068;-70
2021/10/20 06:00:09;;;;;;;54.80;22.20;;;14.70;99.90;;;;;;5034554;28;20025;-70
2021/10/20 06:02:34;;;;;;;40.90;22.13;;;14.70;99.90;;;;;;5034852;28;20032;-70
2021/10/20 06:05:00;;;;;;;49.30;22.88;;;14.70;99.90;;;;;;5034745;28;20380;-70
2021/10/20 06:07:26;;;;;;;60.47;24.35;;;14.60;99.90;;;;;;5035060;28;20393;-71
2021/10/20 06:09:51;;;;;;;51.45;23.35;;;14.70;99.90;;;;;;5035167;28;20104;-71
2021/10/20 06:12:17;;;;;;;43.60;22.85;;;14.60;99.90;;;;;;5035198;28;20026;-70
2021/10/20 06:14:42;;;;;;;52.92;25.17;;;14.60;99.90;;;;;;5034420;28;20033;-71
2021/10/20 06:17:08;;;;;;;46.47;24.27;;;14.60;99.90;;;;;;5034654;28;20101;-71
2021/10/20 06:19:34;;;;;;;52.30;24.45;;;14.60;99.90;;;;;;5035370;28;20057;-71
2021/10/20 06:22:00;;;;;;;47.33;24.17;;;14.60;99.90;;;;;;5034756;28;20064;-70
2021/10/20 06:24:26;;;;;;;46.10;23.20;;;14.60;99.90;;;;;;5034570;28;20036;-71
2021/10/20 06:26:51;;;;;;;52.22;24.85;;;14.60;99.90;;;;;;5034041;28;20029;-71
2021/10/20 06:29:18;;;;;;;48.17;26.92;;;14.60;99.90;;;;;;5034670;28;20049;-71
2021/10/20 06:31:45;;;;;;;43.78;24.95;;;14.70;99.90;;;;;;5034584;28;20083;-70
2021/10/20 06:34:11;;;;;;;58.83;24.75;;;14.70;99.90;;;;;;5034506;28;20485;-71
2021/10/20 06:36:37;;;;;;;47.13;24.02;;;14.70;99.90;;;;;;5033989;28;20037;-71
2021/10/20 06:39:03;;;;;;;44.15;23.73;;;14.70;99.90;;;;;;5034391;28;20097;-71
2021/10/20 06:41:29;;;;;;;43.50;23.48;;;14.70;99.90;;;;;;5034433;28;20029;-71
2021/10/20 06:43:55;;;;;;;49.15;25.02;;;14.70;99.90;;;;;;5034563;28;20040;-71
2021/10/20 06:46:20;;;;;;;48.20;24.38;;;14.70;99.90;;;;;;5033836;28;20032;-71
2021/10/20 06:48:47;;;;;;;55.78;24.83;;;14.70;99.90;;;;;;5033883;28;20021;-71
2021/10/20 06:51:13;;;;;;;41.80;23.30;;;14.70;99.90;;;;;;5034220;28;20017;-71
2021/10/20 06:53:39;;;;;;;39.20;23.40;;;14.70;99.90;;;;;;5034419;28;20075;-71
2021/10/20 06:56:07;;;;;;;53.65;23.17;;;14.60;99.90;;;;;;5032867;28;20457;-71
2021/10/20 06:58:33;;;;;;;41.70;22.63;;;14.60;99.90;;;;;;5049198;28;20108;-71
2021/10/20 07:00:59;;;;;;;46.60;24.88;;;14.60;99.90;;;;;;5034052;28;20025;-71
2021/10/20 07:03:24;;;;;;;45.63;24.17;;;14.50;99.90;;;;;;5034160;28;20021;-70
2021/10/20 07:05:50;;;;;;;43.15;23.98;;;14.50;99.90;;;;;;5033887;28;20105;-71
2021/10/20 07:08:15;;;;;;;39.95;22.60;;;14.50;99.90;;;;;;5033240;28;20032;-71
2021/10/20 07:10:41;;;;;;;44.85;24.15;;;14.50;99.90;;;;;;5034363;28;20036;-71
2021/10/20 07:13:07;;;;;;;44.00;23.63;;;14.50;99.90;;;;;;5033815;28;20537;-70
2021/10/20 07:15:33;;;;;;;49.20;24.83;;;14.50;99.90;;;;;;5033811;28;20484;-71
2021/10/20 07:17:58;;;;;;;44.63;22.65;;;14.50;99.90;;;;;;5033155;28;20108;-71
2021/10/20 07:20:24;;;;;;;49.35;23.90;;;14.60;99.90;;;;;;5033654;28;20481;-72
2021/10/20 07:22:50;;;;;;;43.45;25.52;;;14.60;99.90;;;;;;5033639;28;20552;-71
2021/10/20 07:25:19;;;;;;;50.17;23.05;;;14.60;99.90;;;;;;5033560;28;20156;-71
2021/10/20 07:27:47;;;;;;;39.65;21.80;;;14.60;99.90;;;;;;5033767;28;20472;-71
2021/10/20 07:30:14;;;;;;;47.45;25.35;;;14.50;99.90;;;;;;5033248;28;20017;-71
2021/10/20 07:32:41;;;;;;;45.72;23.80;;;14.50;99.90;;;;;;5033514;28;20060;-71
2021/10/20 07:35:08;;;;;;;40.30;22.25;;;14.40;99.90;;;;;;5033447;28;20021;-71
2021/10/20 07:37:34;;;;;;;44.67;23.40;;;14.30;99.90;;;;;;5033562;28;20481;-71
2021/10/20 07:39:59;;;;;;;48.67;24.25;;;14.20;99.90;;;;;;5033376;28;20100;-70
2021/10/20 07:42:25;;;;;;;43.95;25.05;;;14.10;99.90;;;;;;5033629;28;20125;-70
2021/10/20 07:44:50;;;;;;;54.15;24.77;;;14.10;99.90;;;;;;5032732;28;20036;-70
2021/10/20 07:47:17;;;;;;;41.08;23.77;;;14.00;99.90;;;;;;5033275;28;20025;-70
2021/10/20 07:49:42;;;;;;;42.53;25.83;;;14.00;99.90;;;;;;5048681;28;20025;-70
2021/10/20 07:52:08;;;;;;;47.15;27.13;;;14.00;99.90;;;;;;5024117;28;20021;-70
2021/10/20 07:54:34;;;;;;;49.00;27.65;;;13.90;99.90;;;;;;5033201;28;20111;-69
2021/10/20 07:56:59;;;;;;;61.67;28.50;;;13.90;99.90;;;;;;5032641;28;20083;-69
2021/10/20 07:59:25;;;;;;;54.67;30.38;;;13.90;99.90;;;;;;5031957;28;20148;-69
2021/10/20 08:01:51;;;;;;;73.53;28.88;;;13.90;99.90;;;;;;5033084;28;20026;-70
2021/10/20 08:04:17;;;;;;;60.65;30.88;;;13.80;99.90;;;;;;5033028;28;20034;-70
2021/10/20 08:06:43;;;;;;;63.10;33.10;;;13.80;99.90;;;;;;5032813;28;20024;-69
2021/10/20 08:09:09;;;;;;;65.30;32.28;;;13.80;99.90;;;;;;5032443;28;20468;-69
2021/10/20 08:11:35;;;;;;;66.50;31.75;;;13.80;99.90;;;;;;5031716;28;20049;-69
2021/10/20 08:14:03;;;;;;;68.32;33.28;;;13.80;99.90;;;;;;5032994;28;20037;-69
2021/10/20 08:16:29;;;;;;;67.07;33.53;;;13.70;99.90;;;;;;5032882;28;20025;-70
2021/10/20 08:18:54;;;;;;;66.45;31.48;;;13.70;99.90;;;;;;5032374;28;20499;-70
2021/10/20 08:21:20;;;;;;;69.60;35.05;;;13.70;99.90;;;;;;5030786;28;20543;-71
2021/10/20 08:23:46;;;;;;;77.85;34.25;;;13.70;99.90;;;;;;5032657;28;20056;-71
2021/10/20 08:26:12;;;;;;;63.58;31.65;;;13.70;99.90;;;;;;5032900;28;20018;-71
2021/10/20 08:28:37;;;;;;;69.85;32.33;;;13.70;99.90;;;;;;5032170;28;20074;-71
2021/10/20 08:31:03;;;;;;;67.75;34.42;;;13.80;99.90;;;;;;5032823;28;20029;-71
2021/10/20 08:33:29;;;;;;;75.55;33.03;;;13.80;99.90;;;;;;5032328;28;20035;-71
2021/10/20 08:35:54;;;;;;;62.67;32.00;;;13.80;99.90;;;;;;5032857;28;20025;-70
2021/10/20 08:38:20;;;;;;;71.82;34.08;;;13.90;99.90;;;;;;5032056;28;20035;-70
2021/10/20 08:40:46;;;;;;;52.42;30.52;;;13.90;99.90;;;;;;5032589;28;20022;-70
2021/10/20 08:43:16;;;;;;;64.13;32.55;;;14.00;99.90;;;;;;5032772;28;20026;-70
2021/10/20 08:45:46;;;;;;;72.57;32.28;;;14.00;99.90;;;;;;5032239;28;20026;-70
2021/10/20 08:48:21;;;;;;;57.92;30.88;;;14.00;99.90;;;;;;5030841;28;20028;-69
2021/10/20 08:51:03;;;;;;;61.92;33.63;;;14.00;99.90;;;;;;5032315;28;20108;-69
2021/10/20 08:53:29;;;;;;;56.95;32.67;;;14.00;99.90;;;;;;5011680;28;20432;-69
2021/10/20 08:55:55;;;;;;;58.00;31.00;;;14.00;99.90;;;;;;5012931;28;20061;-70
2021/10/20 08:58:22;;;;;;;63.28;32.25;;;14.00;99.90;;;;;;5031278;28;20454;-70
2021/10/20 09:00:47;;;;;;;70.22;32.33;;;14.00;99.90;;;;;;5027934;28;20026;-70
2021/10/20 09:03:14;;;;;;;66.07;31.48;;;13.90;99.90;;;;;;5031776;28;20439;-70
2021/10/20 09:05:40;;;;;;;73.85;34.95;;;13.90;99.90;;;;;;5032489;28;20076;-70
2021/10/20 09:08:06;;;;;;;65.22;32.80;;;14.00;99.90;;;;;;5031723;28;20048;-70
2021/10/20 09:10:32;;;;;;;63.90;33.55;;;14.00;99.90;;;;;;5033761;28;20025;-70
2021/10/20 09:12:59;;;;;;;80.63;35.55;;;14.00;99.90;;;;;;5035197;28;20040;-70
2021/10/20 09:15:28;;;;;;;65.90;31.77;;;14.00;99.90;;;;;;5035991;28;20030;-70
2021/10/20 09:18:09;;;;;;;60.28;33.20;;;14.00;99.90;;;;;;5035553;28;20083;-70
2021/10/20 09:20:36;;;;;;;67.78;35.47;;;14.00;99.90;;;;;;5036243;28;20021;-70
2021/10/20 09:23:19;;;;;;;70.25;35.45;;;14.10;99.90;;;;;;5035493;28;20507;-70
2021/10/20 09:25:45;;;;;;;65.60;34.22;;;14.10;99.90;;;;;;5035903;28;20076;-70
2021/10/20 09:28:23;;;;;;;69.93;33.80;;;14.10;99.90;;;;;;5035691;28;20029;-70
2021/10/20 09:30:50;;;;;;;70.38;34.83;;;14.10;99.90;;;;;;5035288;28;20021;-70
2021/10/20 09:33:17;;;;;;;85.00;37.05;;;14.10;99.90;;;;;;5035708;28;20026;-70
2021/10/20 09:35:43;;;;;;;72.95;37.53;;;14.10;99.90;;;;;;5035617;28;20048;-70
2021/10/20 09:38:10;;;;;;;71.38;33.97;;;14.10;99.90;;;;;;5035349;28;20029;-70
2021/10/20 09:40:43;;;;;;;65.85;32.90;;;14.10;99.90;;;;;;5035880;28;20030;-70
2021/10/20 09:43:11;;;;;;;61.75;33.20;;;14.00;99.90;;;;;;5034526;28;20095;-70
2021/10/20 09:45:39;;;;;;;67.03;32.75;;;14.00;99.90;;;;;;5035255;28;20030;-70
2021/10/20 09:48:15;;;;;;;65.40;34.08;;;14.00;99.90;;;;;;5035671;28;20152;-70
2021/10/20 09:50:53;;;;;;;66.93;36.22;;;14.00;99.90;;;;;;5035512;28;20033;-70
2021/10/20 09:53:19;;;;;;;57.60;33.65;;;14.00;99.90;;;;;;5034882;28;20500;-69
2021/10/20 09:55:44;;;;;;;76.05;34.35;;;14.00;99.90;;;;;;5035336;28;20030;-70
2021/10/20 09:58:12;;;;;;;64.20;35.33;;;13.90;99.90;;;;;;5034602;28;20079;-69
2021/10/20 10:00:38;;;;;;;71.05;34.60;;;14.00;99.90;;;;;;5034573;28;20025;-70
2021/10/20 10:03:05;;;;;;;69.97;33.35;;;14.00;99.90;;;;;;5034721;28;20032;-70
2021/10/20 10:05:31;;;;;;;73.60;33.30;;;14.00;99.90;;;;;;5035216;28;20044;-70
2021/10/20 10:07:58;;;;;;;84.93;34.38;;;14.00;99.90;;;;;;5035317;28;20389;-70
2021/10/20 10:10:23;;;;;;;76.10;34.63;;;14.10;99.90;;;;;;5035588;28;20436;-70
2021/10/20 10:12:57;;;;;;;71.55;34.05;;;14.10;99.90;;;;;;5034574;28;20032;-70
2021/10/20 10:15:24;;;;;;;88.22;37.45;;;14.10;99.90;;;;;;5033013;28;20030;-70
2021/10/20 10:17:53;;;;;;;87.57;34.95;;;14.10;99.90;;;;;;5032590;28;20083;-70
2021/10/20 10:20:20;;;;;;;105.18;36.75;;;14.20;99.90;;;;;;5033519;28;20048;-70
2021/10/20 10:22:59;;;;;;;92.43;33.97;;;14.20;99.90;;;;;;5032550;28;20026;-70
2021/10/20 10:25:38;;;;;;;90.80;34.78;;;14.20;99.90;;;;;;5032433;28;20037;-71
2021/10/20 10:28:17;;;;;;;95.90;36.22;;;14.20;99.90;;;;;;5028995;28;20052;-70
2021/10/20 10:30:55;;;;;;;105.68;38.47;;;14.20;99.90;;;;;;5024962;28;20075;-69
2021/10/20 10:33:28;;;;;;;99.28;34.45;;;14.30;99.90;;;;;;5033052;28;20057;-70
2021/10/20 10:36:13;;;;;;;94.05;35.85;;;14.30;99.90;;;;;;5032115;28;20041;-69
2021/10/20 10:38:40;;;;;;;105.57;36.38;;;14.30;99.90;;;;;;5032656;28;20021;-69
2021/10/20 10:41:16;;;;;;;98.30;35.10;;;14.30;99.90;;;;;;5032641;28;20030;-69
2021/10/20 10:44:11;;;;;;;93.45;34.60;;;14.30;99.90;;;;;;5033002;28;20027;-69
2021/10/20 10:46:47;;;;;;;108.28;32.80;;;14.40;99.90;;;;;;5032815;28;20053;-69
2021/10/20 10:49:34;;;;;;;103.68;33.83;;;14.40;99.90;;;;;;5032508;28;20776;-69
2021/10/20 10:52:04;;;;;;;100.95;33.05;;;14.40;99.90;;;;;;5033001;28;20409;-69
2021/10/20 10:54:38;;;;;;;103.45;33.83;;;14.40;99.90;;;;;;5032023;28;20064;-69
2021/10/20 10:57:15;;;;;;;109.35;32.70;;;14.40;99.90;;;;;;5033304;28;20029;-70
2021/10/20 11:00:08;;;;;;;100.57;31.98;;;14.40;99.90;;;;;;5019787;28;20038;-70
2021/10/20 11:02:44;;;;;;;97.07;29.92;;;14.40;99.90;;;;;;5032784;28;20760;-70
2021/10/20 11:05:10;;;;;;;108.65;32.28;;;14.40;99.90;;;;;;5031718;28;20033;-70
2021/10/20 11:07:36;;;;;;;114.03;33.58;;;14.40;99.90;;;;;;5030959;28;20075;-70
2021/10/20 11:10:05;;;;;;;107.93;32.35;;;14.40;99.90;;;;;;5032456;28;20029;-70
2021/10/20 11:12:30;;;;;;;130.38;36.08;;;14.40;99.90;;;;;;5031955;28;20397;-71
2021/10/20 11:14:57;;;;;;;100.43;32.25;;;14.40;99.90;;;;;;5033013;28;20021;-70
2021/10/20 11:17:23;;;;;;;102.57;32.72;;;14.40;99.90;;;;;;5031825;28;20397;-70
2021/10/20 11:19:49;;;;;;;107.40;31.95;;;14.40;99.90;;;;;;5030622;28;20036;-71
2021/10/20 11:22:19;;;;;;;98.75;32.58;;;14.50;99.90;;;;;;5032274;28;20061;-71
2021/10/20 11:24:47;;;;;;;96.72;32.00;;;14.40;99.90;;;;;;5028808;28;20071;-71
2021/10/20 11:27:20;;;;;;;130.10;33.83;;;14.40;99.90;;;;;;5033073;28;20473;-71
2021/10/20 11:29:48;;;;;;;103.53;35.85;;;14.50;99.90;;;;;;5033126;28;20064;-71
2021/10/20 11:32:15;;;;;;;124.25;35.03;;;14.40;99.90;;;;;;5032577;28;20025;-71
2021/10/20 11:34:46;;;;;;;86.75;32.92;;;14.40;99.90;;;;;;5032855;28;20499;-71
2021/10/20 11:37:13;;;;;;;87.20;32.63;;;14.40;99.90;;;;;;5032966;28;20053;-71
2021/10/20 11:39:40;;;;;;;84.82;31.10;;;14.40;99.90;;;;;;5032799;28;20025;-70
2021/10/20 11:42:09;;;;;;;88.57;31.30;;;14.50;99.90;;;;;;5032873;28;20045;-70
2021/10/20 11:44:39;;;;;;;95.28;30.27;;;14.40;99.90;;;;;;5032579;28;20036;-70
2021/10/20 11:47:07;;;;;;;85.03;30.33;;;14.40;99.90;;;;;;5032308;28;20512;-70
2021/10/20 11:49:42;;;;;;;89.30;31.75;;;14.40;99.90;;;;;;5032682;28;20061;-70
2021/10/20 11:52:11;;;;;;;102.80;32.03;;;14.40;99.90;;;;;;5032821;28;20028;-70
2021/10/20 11:54:37;;;;;;;89.43;30.90;;;14.40;99.90;;;;;;5032627;28;20091;-70
2021/10/20 11:57:05;;;;;;;104.18;33.60;;;14.40;99.90;;;;;;5032731;28;20017;-70
2021/10/20 11:59:30;;;;;;;92.53;31.95;;;14.40;99.90;;;;;;5033178;28;20105;-70
2021/10/20 12:01:56;;;;;;;91.47;32.53;;;14.50;99.90;;;;;;5032063;28;20057;-69
2021/10/20 12:04:23;;;;;;;99.95;32.40;;;14.40;99.90;;;;;;5032960;28;20032;-69
2021/10/20 12:07:01;;;;;;;76.88;31.75;;;14.40;99.90;;;;;;5031617;28;20068;-70
2021/10/20 12:09:31;;;;;;;100.70;37.10;;;14.40;99.90;;;;;;5032299;28;20042;-69
2021/10/20 12:11:58;;;;;;;69.35;31.65;;;14.40;99.90;;;;;;5033054;28;20104;-70
2021/10/20 12:14:40;;;;;;;72.15;32.97;;;14.40;99.90;;;;;;5032966;28;20033;-70
2021/10/20 12:17:08;;;;;;;72.07;32.28;;;14.30;99.90;;;;;;5032692;28;20018;-70
2021/10/20 12:19:37;;;;;;;77.30;34.20;;;14.30;99.90;;;;;;5033012;28;20022;-70
2021/10/20 12:22:06;;;;;;;75.43;34.80;;;14.30;99.90;;;;;;5032544;28;20035;-70
2021/10/20 12:24:48;;;;;;;73.22;33.67;;;14.30;99.90;;;;;;5032677;28;20113;-70